Noxon, Montana
Current Conditions -  °F | °C
As of 10:53 AM on Friday 24 Oct 2014 (Local Time) from KMLP Reporting Station
NA  
Wind Chill: 35°   Ceiling: NA
Heat Index: 35°   Visibility: NA
Dew Point: 32°   Wind: 3mph
Humidity: 89%   Direction: NA
Pressure: 30.1"   Gusts: NA
Location:  48°N, 115.78°W
Report Text: KMLP 241653Z AUTO VRB03KT 02/00 A3010 RMK AO2 SLP159 T00170000 $
Loading
Personal Weather Stations






























Interactive Weather Map
Tropical Storm Tracking
New forecast layout! Learn more

10-Day Weather Forecast

Advertisements
Track Severe Weather on mobile